Airport View

Enter AWOS ICAO identifier for current METAR.

ex. KFNL

KHXD 030040Z AUTO VRB06KT 10SM CLR 24/16 A3014 RMK AO2

3 Jun 2020 00:40

Frequency: 121.4

Phone: 843-342-5072

Other Area AWOS: KARW - KNBC - KSVN - KSAV

TAF KNBC 0221/0321 18010KT 9999 SCT050 SCT250 QNH3009INS T17/0311Z T31/0319Z